sensor_id;sensor_type;location;lat;lon;timestamp;P1;durP1;ratioP1;P2;durP2;ratioP2
45905;SDS011;31619;49.008;12.106;2023-02-01T00:01:59;5.63;;;4.85;;
45905;SDS011;31619;49.008;12.106;2023-02-01T00:04:25;5.85;;;4.32;;
45905;SDS011;31619;49.008;12.106;2023-02-01T00:06:51;6.13;;;5.53;;
45905;SDS011;31619;49.008;12.106;2023-02-01T00:09:16;4.05;;;3.75;;
45905;SDS011;31619;49.008;12.106;2023-02-01T00:11:42;5.03;;;2.55;;
45905;SDS011;31619;49.008;12.106;2023-02-01T00:14:07;6.13;;;4.53;;
45905;SDS011;31619;49.008;12.106;2023-02-01T00:16:33;9.13;;;5.05;;
45905;SDS011;31619;49.008;12.106;2023-02-01T00:19:03;6.88;;;4.65;;
45905;SDS011;31619;49.008;12.106;2023-02-01T00:21:31;6.88;;;5.35;;
45905;SDS011;31619;49.008;12.106;2023-02-01T00:23:58;5.97;;;5.40;;
45905;SDS011;31619;49.008;12.106;2023-02-01T00:26:30;5.45;;;4.95;;
45905;SDS011;31619;49.008;12.106;2023-02-01T00:29:00;6.30;;;4.80;;
45905;SDS011;31619;49.008;12.106;2023-02-01T00:31:27;6.10;;;4.25;;
45905;SDS011;31619;49.008;12.106;2023-02-01T00:33:53;5.93;;;4.20;;
45905;SDS011;31619;49.008;12.106;2023-02-01T00:36:19;7.63;;;5.93;;
45905;SDS011;31619;49.008;12.106;2023-02-01T00:38:44;3.13;;;2.92;;
45905;SDS011;31619;49.008;12.106;2023-02-01T00:43:40;6.32;;;4.75;;
45905;SDS011;31619;49.008;12.106;2023-02-01T00:46:06;5.10;;;4.40;;
45905;SDS011;31619;49.008;12.106;2023-02-01T00:48:32;3.42;;;3.13;;
45905;SDS011;31619;49.008;12.106;2023-02-01T00:50:59;5.95;;;4.45;;
45905;SDS011;31619;49.008;12.106;2023-02-01T00:53:29;4.05;;;3.28;;
45905;SDS011;31619;49.008;12.106;2023-02-01T00:55:55;7.50;;;5.20;;
45905;SDS011;31619;49.008;12.106;2023-02-01T00:58:21;5.40;;;4.90;;
45905;SDS011;31619;49.008;12.106;2023-02-01T01:00:50;5.13;;;4.40;;
45905;SDS011;31619;49.008;12.106;2023-02-01T01:03:28;5.45;;;4.95;;
45905;SDS011;31619;49.008;12.106;2023-02-01T01:05:58;6.30;;;5.40;;
45905;SDS011;31619;49.008;12.106;2023-02-01T01:08:24;5.20;;;4.80;;
45905;SDS011;31619;49.008;12.106;2023-02-01T01:10:50;7.60;;;5.80;;
45905;SDS011;31619;49.008;12.106;2023-02-01T01:13:15;6.35;;;5.75;;
45905;SDS011;31619;49.008;12.106;2023-02-01T01:15:41;5.30;;;4.88;;
45905;SDS011;31619;49.008;12.106;2023-02-01T01:18:07;5.45;;;4.95;;
45905;SDS011;31619;49.008;12.106;2023-02-01T01:20:36;5.90;;;5.25;;
45905;SDS011;31619;49.008;12.106;2023-02-01T01:23:03;5.15;;;4.65;;
45905;SDS011;31619;49.008;12.106;2023-02-01T01:25:29;5.63;;;5.05;;
45905;SDS011;31619;49.008;12.106;2023-02-01T01:27:55;4.63;;;4.07;;
45905;SDS011;31619;49.008;12.106;2023-02-01T01:30:21;3.70;;;3.40;;
45905;SDS011;31619;49.008;12.106;2023-02-01T01:32:46;4.53;;;4.07;;
45905;SDS011;31619;49.008;12.106;2023-02-01T01:35:12;3.28;;;2.97;;
45905;SDS011;31619;49.008;12.106;2023-02-01T01:37:37;7.63;;;4.55;;
45905;SDS011;31619;49.008;12.106;2023-02-01T01:40:04;6.15;;;5.65;;
45905;SDS011;31619;49.008;12.106;2023-02-01T01:42:36;5.63;;;4.78;;
45905;SDS011;31619;49.008;12.106;2023-02-01T01:45:07;5.88;;;4.78;;
45905;SDS011;31619;49.008;12.106;2023-02-01T01:47:34;4.00;;;3.70;;
45905;SDS011;31619;49.008;12.106;2023-02-01T01:50:02;5.10;;;4.65;;
45905;SDS011;31619;49.008;12.106;2023-02-01T01:52:31;5.38;;;4.57;;
45905;SDS011;31619;49.008;12.106;2023-02-01T01:54:57;5.03;;;4.53;;
45905;SDS011;31619;49.008;12.106;2023-02-01T01:57:25;6.15;;;3.13;;
45905;SDS011;31619;49.008;12.106;2023-02-01T01:59:57;4.68;;;4.28;;
45905;SDS011;31619;49.008;12.106;2023-02-01T02:02:30;4.55;;;3.85;;
45905;SDS011;31619;49.008;12.106;2023-02-01T02:04:56;5.63;;;4.55;;
45905;SDS011;31619;49.008;12.106;2023-02-01T02:07:40;5.97;;;4.88;;
45905;SDS011;31619;49.008;12.106;2023-02-01T02:10:10;5.38;;;4.03;;
45905;SDS011;31619;49.008;12.106;2023-02-01T02:12:38;4.18;;;3.85;;
45905;SDS011;31619;49.008;12.106;2023-02-01T02:15:06;5.80;;;4.13;;
45905;SDS011;31619;49.008;12.106;2023-02-01T02:20:16;3.50;;;3.28;;
45905;SDS011;31619;49.008;12.106;2023-02-01T02:26:20;4.63;;;4.28;;
45905;SDS011;31619;49.008;12.106;2023-02-01T02:29:25;3.28;;;3.00;;
45905;SDS011;31619;49.008;12.106;2023-02-01T02:32:33;3.90;;;3.60;;
45905;SDS011;31619;49.008;12.106;2023-02-01T02:38:01;3.17;;;2.88;;
45905;SDS011;31619;49.008;12.106;2023-02-01T02:44:12;2.78;;;2.60;;
45905;SDS011;31619;49.008;12.106;2023-02-01T02:47:06;4.00;;;3.60;;
45905;SDS011;31619;49.008;12.106;2023-02-01T02:53:01;3.92;;;3.60;;
45905;SDS011;31619;49.008;12.106;2023-02-01T02:55:52;4.10;;;3.08;;
45905;SDS011;31619;49.008;12.106;2023-02-01T02:58:36;4.13;;;3.72;;
45905;SDS011;31619;49.008;12.106;2023-02-01T03:01:20;4.35;;;3.95;;
45905;SDS011;31619;49.008;12.106;2023-02-01T03:04:05;4.47;;;4.07;;
45905;SDS011;31619;49.008;12.106;2023-02-01T03:06:33;6.00;;;4.72;;
45905;SDS011;31619;49.008;12.106;2023-02-01T03:09:00;4.80;;;4.13;;
45905;SDS011;31619;49.008;12.106;2023-02-01T03:11:29;4.22;;;3.83;;
45905;SDS011;31619;49.008;12.106;2023-02-01T03:14:16;4.78;;;4.28;;
45905;SDS011;31619;49.008;12.106;2023-02-01T03:16:50;4.00;;;3.13;;
45905;SDS011;31619;49.008;12.106;2023-02-01T03:19:24;4.30;;;4.00;;
45905;SDS011;31619;49.008;12.106;2023-02-01T03:21:58;4.22;;;3.80;;
45905;SDS011;31619;49.008;12.106;2023-02-01T03:24:46;4.03;;;3.63;;
45905;SDS011;31619;49.008;12.106;2023-02-01T03:30:09;3.70;;;3.40;;
45905;SDS011;31619;49.008;12.106;2023-02-01T03:32:42;3.67;;;3.38;;
45905;SDS011;31619;49.008;12.106;2023-02-01T03:35:30;4.30;;;3.90;;
45905;SDS011;31619;49.008;12.106;2023-02-01T03:38:08;4.50;;;4.10;;
45905;SDS011;31619;49.008;12.106;2023-02-01T03:40:45;4.07;;;3.67;;
45905;SDS011;31619;49.008;12.106;2023-02-01T03:43:26;4.38;;;3.97;;
45905;SDS011;31619;49.008;12.106;2023-02-01T03:45:58;4.43;;;3.30;;
45905;SDS011;31619;49.008;12.106;2023-02-01T03:48:27;4.68;;;4.28;;
45905;SDS011;31619;49.008;12.106;2023-02-01T03:50:55;3.25;;;3.05;;
45905;SDS011;31619;49.008;12.106;2023-02-01T03:53:24;4.75;;;4.35;;
45905;SDS011;31619;49.008;12.106;2023-02-01T03:55:51;3.08;;;2.88;;
45905;SDS011;31619;49.008;12.106;2023-02-01T03:58:22;3.95;;;3.60;;
45905;SDS011;31619;49.008;12.106;2023-02-01T04:00:55;2.90;;;2.70;;
45905;SDS011;31619;49.008;12.106;2023-02-01T04:03:23;4.18;;;3.88;;
45905;SDS011;31619;49.008;12.106;2023-02-01T04:05:50;3.42;;;3.13;;
45905;SDS011;31619;49.008;12.106;2023-02-01T04:08:16;2.92;;;2.72;;
45905;SDS011;31619;49.008;12.106;2023-02-01T04:10:42;3.90;;;3.33;;
45905;SDS011;31619;49.008;12.106;2023-02-01T04:13:08;5.68;;;3.70;;
45905;SDS011;31619;49.008;12.106;2023-02-01T04:15:34;4.05;;;3.05;;
45905;SDS011;31619;49.008;12.106;2023-02-01T04:17:59;3.92;;;2.92;;
45905;SDS011;31619;49.008;12.106;2023-02-01T04:20:26;3.78;;;3.53;;
45905;SDS011;31619;49.008;12.106;2023-02-01T04:22:52;3.42;;;3.05;;
45905;SDS011;31619;49.008;12.106;2023-02-01T04:25:17;3.17;;;2.97;;
45905;SDS011;31619;49.008;12.106;2023-02-01T04:27:43;3.30;;;2.97;;
45905;SDS011;31619;49.008;12.106;2023-02-01T04:30:09;3.50;;;3.28;;
45905;SDS011;31619;49.008;12.106;2023-02-01T04:32:36;3.35;;;3.05;;
45905;SDS011;31619;49.008;12.106;2023-02-01T04:35:02;3.28;;;2.97;;
45905;SDS011;31619;49.008;12.106;2023-02-01T04:37:28;2.90;;;2.47;;
45905;SDS011;31619;49.008;12.106;2023-02-01T04:39:54;3.05;;;2.72;;
45905;SDS011;31619;49.008;12.106;2023-02-01T04:42:19;2.72;;;2.53;;
45905;SDS011;31619;49.008;12.106;2023-02-01T04:44:45;2.88;;;2.70;;
45905;SDS011;31619;49.008;12.106;2023-02-01T04:47:11;2.13;;;2.03;;
45905;SDS011;31619;49.008;12.106;2023-02-01T04:49:36;2.55;;;2.35;;
45905;SDS011;31619;49.008;12.106;2023-02-01T04:52:02;3.50;;;3.28;;
45905;SDS011;31619;49.008;12.106;2023-02-01T04:54:28;2.70;;;2.50;;
45905;SDS011;31619;49.008;12.106;2023-02-01T04:56:54;3.40;;;3.20;;
45905;SDS011;31619;49.008;12.106;2023-02-01T04:59:19;3.10;;;2.90;;
45905;SDS011;31619;49.008;12.106;2023-02-01T05:01:45;2.10;;;1.98;;
45905;SDS011;31619;49.008;12.106;2023-02-01T05:04:10;3.10;;;2.90;;
45905;SDS011;31619;49.008;12.106;2023-02-01T05:06:36;1.88;;;1.80;;
45905;SDS011;31619;49.008;12.106;2023-02-01T05:09:01;2.65;;;2.42;;
45905;SDS011;31619;49.008;12.106;2023-02-01T05:11:27;2.33;;;2.17;;
45905;SDS011;31619;49.008;12.106;2023-02-01T05:14:11;2.88;;;2.72;;
45905;SDS011;31619;49.008;12.106;2023-02-01T05:16:37;2.40;;;2.30;;
45905;SDS011;31619;49.008;12.106;2023-02-01T05:19:02;2.95;;;2.75;;
45905;SDS011;31619;49.008;12.106;2023-02-01T05:21:28;2.28;;;2.17;;
45905;SDS011;31619;49.008;12.106;2023-02-01T05:23:53;2.05;;;1.88;;
45905;SDS011;31619;49.008;12.106;2023-02-01T05:26:34;2.20;;;2.10;;
45905;SDS011;31619;49.008;12.106;2023-02-01T05:29:00;2.72;;;2.42;;
45905;SDS011;31619;49.008;12.106;2023-02-01T05:31:25;2.58;;;2.38;;
45905;SDS011;31619;49.008;12.106;2023-02-01T05:33:51;2.33;;;2.22;;
45905;SDS011;31619;49.008;12.106;2023-02-01T05:36:16;2.63;;;2.53;;
45905;SDS011;31619;49.008;12.106;2023-02-01T05:38:42;2.60;;;2.20;;
45905;SDS011;31619;49.008;12.106;2023-02-01T05:41:08;2.33;;;2.13;;
45905;SDS011;31619;49.008;12.106;2023-02-01T05:43:33;2.83;;;2.63;;
45905;SDS011;31619;49.008;12.106;2023-02-01T05:45:59;2.80;;;2.13;;
45905;SDS011;31619;49.008;12.106;2023-02-01T05:48:25;2.85;;;2.65;;
45905;SDS011;31619;49.008;12.106;2023-02-01T05:50:50;2.20;;;2.10;;
45905;SDS011;31619;49.008;12.106;2023-02-01T05:53:16;2.53;;;2.42;;
45905;SDS011;31619;49.008;12.106;2023-02-01T05:55:41;2.33;;;2.22;;
45905;SDS011;31619;49.008;12.106;2023-02-01T05:58:07;2.15;;;2.05;;
45905;SDS011;31619;49.008;12.106;2023-02-01T06:00:33;2.50;;;2.40;;
45905;SDS011;31619;49.008;12.106;2023-02-01T06:02:58;2.17;;;2.08;;
45905;SDS011;31619;49.008;12.106;2023-02-01T06:05:24;3.10;;;2.90;;
45905;SDS011;31619;49.008;12.106;2023-02-01T06:07:50;2.90;;;2.70;;
45905;SDS011;31619;49.008;12.106;2023-02-01T06:10:18;2.55;;;2.35;;
45905;SDS011;31619;49.008;12.106;2023-02-01T06:12:44;3.20;;;3.00;;
45905;SDS011;31619;49.008;12.106;2023-02-01T06:15:14;2.45;;;2.25;;
45905;SDS011;31619;49.008;12.106;2023-02-01T06:17:43;2.78;;;2.28;;
45905;SDS011;31619;49.008;12.106;2023-02-01T06:20:10;3.75;;;3.45;;
45905;SDS011;31619;49.008;12.106;2023-02-01T06:22:37;3.35;;;3.05;;
45905;SDS011;31619;49.008;12.106;2023-02-01T06:25:04;2.10;;;2.00;;
45905;SDS011;31619;49.008;12.106;2023-02-01T06:27:31;3.50;;;3.28;;
45905;SDS011;31619;49.008;12.106;2023-02-01T06:29:57;3.78;;;3.42;;
45905;SDS011;31619;49.008;12.106;2023-02-01T06:32:22;2.53;;;2.40;;
45905;SDS011;31619;49.008;12.106;2023-02-01T06:34:48;5.00;;;2.80;;
45905;SDS011;31619;49.008;12.106;2023-02-01T06:37:14;4.03;;;3.70;;
45905;SDS011;31619;49.008;12.106;2023-02-01T06:39:40;4.85;;;3.80;;
45905;SDS011;31619;49.008;12.106;2023-02-01T06:42:06;3.97;;;3.58;;
45905;SDS011;31619;49.008;12.106;2023-02-01T06:44:31;6.07;;;3.83;;
45905;SDS011;31619;49.008;12.106;2023-02-01T06:46:57;4.20;;;3.88;;
45905;SDS011;31619;49.008;12.106;2023-02-01T06:49:22;4.35;;;4.05;;
45905;SDS011;31619;49.008;12.106;2023-02-01T06:51:48;4.40;;;4.00;;
45905;SDS011;31619;49.008;12.106;2023-02-01T06:54:14;4.05;;;3.42;;
45905;SDS011;31619;49.008;12.106;2023-02-01T06:56:39;4.35;;;4.05;;
45905;SDS011;31619;49.008;12.106;2023-02-01T06:59:06;3.20;;;2.95;;
45905;SDS011;31619;49.008;12.106;2023-02-01T07:01:32;4.03;;;3.72;;
45905;SDS011;31619;49.008;12.106;2023-02-01T07:03:58;5.80;;;4.50;;
45905;SDS011;31619;49.008;12.106;2023-02-01T07:06:24;4.30;;;3.75;;
45905;SDS011;31619;49.008;12.106;2023-02-01T07:08:50;3.25;;;3.03;;
45905;SDS011;31619;49.008;12.106;2023-02-01T07:11:16;4.35;;;3.95;;
45905;SDS011;31619;49.008;12.106;2023-02-01T07:13:43;4.15;;;3.85;;
45905;SDS011;31619;49.008;12.106;2023-02-01T07:16:10;5.20;;;3.97;;
45905;SDS011;31619;49.008;12.106;2023-02-01T07:18:37;3.95;;;3.70;;
45905;SDS011;31619;49.008;12.106;2023-02-01T07:21:03;4.38;;;3.97;;
45905;SDS011;31619;49.008;12.106;2023-02-01T07:23:29;4.43;;;4.13;;
45905;SDS011;31619;49.008;12.106;2023-02-01T07:25:59;5.47;;;5.05;;
45905;SDS011;31619;49.008;12.106;2023-02-01T07:28:27;3.92;;;3.63;;
45905;SDS011;31619;49.008;12.106;2023-02-01T07:30:54;4.30;;;4.00;;
45905;SDS011;31619;49.008;12.106;2023-02-01T07:33:23;4.68;;;3.90;;
45905;SDS011;31619;49.008;12.106;2023-02-01T07:35:50;4.40;;;4.00;;
45905;SDS011;31619;49.008;12.106;2023-02-01T07:38:16;6.10;;;3.85;;
45905;SDS011;31619;49.008;12.106;2023-02-01T07:40:43;5.25;;;3.83;;
45905;SDS011;31619;49.008;12.106;2023-02-01T07:43:09;4.18;;;3.78;;
45905;SDS011;31619;49.008;12.106;2023-02-01T07:45:35;4.53;;;3.80;;
45905;SDS011;31619;49.008;12.106;2023-02-01T07:48:00;4.00;;;3.70;;
45905;SDS011;31619;49.008;12.106;2023-02-01T07:50:26;3.38;;;2.33;;
45905;SDS011;31619;49.008;12.106;2023-02-01T07:52:52;4.32;;;3.92;;
45905;SDS011;31619;49.008;12.106;2023-02-01T07:55:19;5.35;;;4.93;;
45905;SDS011;31619;49.008;12.106;2023-02-01T07:57:45;5.07;;;4.68;;
45905;SDS011;31619;49.008;12.106;2023-02-01T08:00:10;6.05;;;4.55;;
45905;SDS011;31619;49.008;12.106;2023-02-01T08:02:59;6.00;;;4.90;;
45905;SDS011;31619;49.008;12.106;2023-02-01T08:05:25;4.40;;;4.10;;
45905;SDS011;31619;49.008;12.106;2023-02-01T08:07:51;5.80;;;4.03;;
45905;SDS011;31619;49.008;12.106;2023-02-01T08:10:17;3.03;;;2.78;;
45905;SDS011;31619;49.008;12.106;2023-02-01T08:12:43;3.15;;;2.85;;
45905;SDS011;31619;49.008;12.106;2023-02-01T08:15:12;4.20;;;3.78;;
45905;SDS011;31619;49.008;12.106;2023-02-01T08:17:40;2.72;;;2.40;;
45905;SDS011;31619;49.008;12.106;2023-02-01T08:20:10;2.95;;;2.58;;
45905;SDS011;31619;49.008;12.106;2023-02-01T08:22:38;3.63;;;3.38;;
45905;SDS011;31619;49.008;12.106;2023-02-01T08:25:04;5.07;;;4.57;;
45905;SDS011;31619;49.008;12.106;2023-02-01T08:27:32;4.10;;;3.75;;
45905;SDS011;31619;49.008;12.106;2023-02-01T08:29:58;4.28;;;2.92;;
45905;SDS011;31619;49.008;12.106;2023-02-01T08:32:24;2.97;;;2.72;;
45905;SDS011;31619;49.008;12.106;2023-02-01T08:34:50;4.63;;;4.20;;
45905;SDS011;31619;49.008;12.106;2023-02-01T08:37:15;4.88;;;2.78;;
45905;SDS011;31619;49.008;12.106;2023-02-01T08:39:41;4.05;;;3.75;;
45905;SDS011;31619;49.008;12.106;2023-02-01T08:42:08;4.60;;;3.60;;
45905;SDS011;31619;49.008;12.106;2023-02-01T08:44:54;4.63;;;4.13;;
45905;SDS011;31619;49.008;12.106;2023-02-01T08:47:19;4.85;;;2.85;;
45905;SDS011;31619;49.008;12.106;2023-02-01T08:49:45;3.20;;;2.97;;
45905;SDS011;31619;49.008;12.106;2023-02-01T08:52:11;2.55;;;2.45;;
45905;SDS011;31619;49.008;12.106;2023-02-01T08:54:37;2.50;;;2.28;;
45905;SDS011;31619;49.008;12.106;2023-02-01T08:57:05;2.08;;;1.95;;
45905;SDS011;31619;49.008;12.106;2023-02-01T08:59:31;3.58;;;2.08;;
45905;SDS011;31619;49.008;12.106;2023-02-01T09:01:56;3.47;;;1.98;;
45905;SDS011;31619;49.008;12.106;2023-02-01T09:04:22;2.38;;;2.28;;
45905;SDS011;31619;49.008;12.106;2023-02-01T09:06:48;2.80;;;2.58;;
45905;SDS011;31619;49.008;12.106;2023-02-01T09:09:13;2.33;;;2.13;;
45905;SDS011;31619;49.008;12.106;2023-02-01T09:11:39;3.08;;;1.98;;
45905;SDS011;31619;49.008;12.106;2023-02-01T09:14:04;2.22;;;2.13;;
45905;SDS011;31619;49.008;12.106;2023-02-01T09:16:31;1.35;;;1.27;;
45905;SDS011;31619;49.008;12.106;2023-02-01T09:18:56;2.65;;;1.75;;
45905;SDS011;31619;49.008;12.106;2023-02-01T09:21:22;1.90;;;1.80;;
45905;SDS011;31619;49.008;12.106;2023-02-01T09:23:48;1.30;;;1.30;;
45905;SDS011;31619;49.008;12.106;2023-02-01T09:26:16;2.97;;;2.17;;
45905;SDS011;31619;49.008;12.106;2023-02-01T09:28:41;3.60;;;2.00;;
45905;SDS011;31619;49.008;12.106;2023-02-01T09:31:07;2.17;;;1.98;;
45905;SDS011;31619;49.008;12.106;2023-02-01T09:33:32;2.35;;;1.38;;
45905;SDS011;31619;49.008;12.106;2023-02-01T09:35:59;1.75;;;1.65;;
45905;SDS011;31619;49.008;12.106;2023-02-01T09:38:26;1.80;;;1.50;;
45905;SDS011;31619;49.008;12.106;2023-02-01T09:40:53;2.20;;;2.00;;
45905;SDS011;31619;49.008;12.106;2023-02-01T09:48:43;2.30;;;2.10;;
45905;SDS011;31619;49.008;12.106;2023-02-01T09:51:13;2.33;;;1.52;;
45905;SDS011;31619;49.008;12.106;2023-02-01T09:53:47;3.08;;;1.80;;
45905;SDS011;31619;49.008;12.106;2023-02-01T09:56:23;1.80;;;1.70;;
45905;SDS011;31619;49.008;12.106;2023-02-01T09:58:55;2.00;;;1.85;;
45905;SDS011;31619;49.008;12.106;2023-02-01T10:01:29;1.50;;;1.42;;
45905;SDS011;31619;49.008;12.106;2023-02-01T10:04:07;2.40;;;1.75;;
45905;SDS011;31619;49.008;12.106;2023-02-01T10:06:42;2.35;;;2.20;;
45905;SDS011;31619;49.008;12.106;2023-02-01T10:17:25;4.15;;;3.60;;
45905;SDS011;31619;49.008;12.106;2023-02-01T10:23:25;5.18;;;3.55;;
45905;SDS011;31619;49.008;12.106;2023-02-01T10:26:00;5.32;;;3.90;;
45905;SDS011;31619;49.008;12.106;2023-02-01T10:28:42;6.70;;;3.85;;
45905;SDS011;31619;49.008;12.106;2023-02-01T10:31:11;6.78;;;4.05;;
45905;SDS011;31619;49.008;12.106;2023-02-01T10:36:13;3.90;;;3.60;;
45905;SDS011;31619;49.008;12.106;2023-02-01T10:38:50;5.25;;;2.80;;
45905;SDS011;31619;49.008;12.106;2023-02-01T10:41:21;4.13;;;3.40;;
45905;SDS011;31619;49.008;12.106;2023-02-01T10:43:50;3.17;;;2.88;;
45905;SDS011;31619;49.008;12.106;2023-02-01T10:46:20;3.35;;;2.42;;
45905;SDS011;31619;49.008;12.106;2023-02-01T10:48:47;5.57;;;3.40;;
45905;SDS011;31619;49.008;12.106;2023-02-01T10:51:16;4.07;;;2.92;;
45905;SDS011;31619;49.008;12.106;2023-02-01T10:54:04;4.63;;;2.90;;
45905;SDS011;31619;49.008;12.106;2023-02-01T10:56:45;4.32;;;3.17;;
45905;SDS011;31619;49.008;12.106;2023-02-01T10:59:18;4.72;;;3.33;;
45905;SDS011;31619;49.008;12.106;2023-02-01T11:01:48;4.57;;;2.70;;
45905;SDS011;31619;49.008;12.106;2023-02-01T11:04:16;5.00;;;3.20;;
45905;SDS011;31619;49.008;12.106;2023-02-01T11:06:52;3.13;;;2.90;;
45905;SDS011;31619;49.008;12.106;2023-02-01T11:09:30;6.18;;;3.50;;
45905;SDS011;31619;49.008;12.106;2023-02-01T11:11:57;7.40;;;3.10;;
45905;SDS011;31619;49.008;12.106;2023-02-01T11:16:53;5.53;;;3.53;;
45905;SDS011;31619;49.008;12.106;2023-02-01T11:19:21;5.35;;;2.50;;
45905;SDS011;31619;49.008;12.106;2023-02-01T11:21:50;11.27;;;3.17;;
45905;SDS011;31619;49.008;12.106;2023-02-01T11:24:21;7.00;;;2.95;;
45905;SDS011;31619;49.008;12.106;2023-02-01T11:26:47;8.52;;;2.78;;
45905;SDS011;31619;49.008;12.106;2023-02-01T11:29:14;5.30;;;3.58;;
45905;SDS011;31619;49.008;12.106;2023-02-01T11:31:44;3.42;;;2.83;;
45905;SDS011;31619;49.008;12.106;2023-02-01T11:36:41;6.20;;;2.58;;
45905;SDS011;31619;49.008;12.106;2023-02-01T11:39:17;5.95;;;3.47;;
45905;SDS011;31619;49.008;12.106;2023-02-01T11:44:37;7.00;;;3.20;;
45905;SDS011;31619;49.008;12.106;2023-02-01T11:49:57;1.80;;;1.70;;
45905;SDS011;31619;49.008;12.106;2023-02-01T12:00:55;3.28;;;2.97;;
45905;SDS011;31619;49.008;12.106;2023-02-01T12:03:37;4.80;;;2.85;;
45905;SDS011;31619;49.008;12.106;2023-02-01T12:06:30;5.85;;;2.67;;
45905;SDS011;31619;49.008;12.106;2023-02-01T12:17:54;3.97;;;2.35;;
45905;SDS011;31619;49.008;12.106;2023-02-01T12:26:04;5.40;;;2.25;;
45905;SDS011;31619;49.008;12.106;2023-02-01T12:52:20;4.93;;;2.90;;
45905;SDS011;31619;49.008;12.106;2023-02-01T12:55:09;5.22;;;2.50;;
45905;SDS011;31619;49.008;12.106;2023-02-01T12:57:43;2.70;;;2.50;;
45905;SDS011;31619;49.008;12.106;2023-02-01T13:00:57;6.20;;;2.78;;
45905;SDS011;31619;49.008;12.106;2023-02-01T13:06:04;6.72;;;2.90;;
45905;SDS011;31619;49.008;12.106;2023-02-01T13:08:48;4.47;;;2.72;;
45905;SDS011;31619;49.008;12.106;2023-02-01T13:14:05;3.15;;;2.70;;
45905;SDS011;31619;49.008;12.106;2023-02-01T13:16:56;7.00;;;3.15;;
45905;SDS011;31619;49.008;12.106;2023-02-01T13:19:46;7.63;;;3.40;;
45905;SDS011;31619;49.008;12.106;2023-02-01T13:25:11;5.47;;;3.00;;
45905;SDS011;31619;49.008;12.106;2023-02-01T13:27:38;6.95;;;3.13;;
45905;SDS011;31619;49.008;12.106;2023-02-01T13:41:04;7.32;;;3.50;;
45905;SDS011;31619;49.008;12.106;2023-02-01T13:43:38;6.75;;;3.25;;
45905;SDS011;31619;49.008;12.106;2023-02-01T13:46:07;5.47;;;3.17;;
45905;SDS011;31619;49.008;12.106;2023-02-01T13:51:06;3.15;;;2.95;;
45905;SDS011;31619;49.008;12.106;2023-02-01T13:53:36;6.53;;;2.45;;
45905;SDS011;31619;49.008;12.106;2023-02-01T13:58:36;5.35;;;2.50;;
45905;SDS011;31619;49.008;12.106;2023-02-01T14:06:16;3.78;;;2.22;;
45905;SDS011;31619;49.008;12.106;2023-02-01T14:11:45;3.40;;;2.15;;
45905;SDS011;31619;49.008;12.106;2023-02-01T14:19:23;2.65;;;1.85;;
45905;SDS011;31619;49.008;12.106;2023-02-01T14:21:52;4.35;;;1.88;;
45905;SDS011;31619;49.008;12.106;2023-02-01T14:24:35;3.75;;;2.40;;
45905;SDS011;31619;49.008;12.106;2023-02-01T14:27:16;4.50;;;1.90;;
45905;SDS011;31619;49.008;12.106;2023-02-01T14:29:52;5.43;;;2.65;;
45905;SDS011;31619;49.008;12.106;2023-02-01T14:32:25;6.00;;;3.60;;
45905;SDS011;31619;49.008;12.106;2023-02-01T14:34:57;5.32;;;2.20;;
45905;SDS011;31619;49.008;12.106;2023-02-01T14:37:30;8.68;;;2.58;;
45905;SDS011;31619;49.008;12.106;2023-02-01T14:40:19;3.03;;;1.42;;
45905;SDS011;31619;49.008;12.106;2023-02-01T14:42:49;5.93;;;2.97;;
45905;SDS011;31619;49.008;12.106;2023-02-01T14:55:42;5.75;;;2.05;;
45905;SDS011;31619;49.008;12.106;2023-02-01T15:01:16;1.70;;;1.58;;
45905;SDS011;31619;49.008;12.106;2023-02-01T15:06:56;4.10;;;2.42;;
45905;SDS011;31619;49.008;12.106;2023-02-01T15:14:36;4.57;;;2.20;;
45905;SDS011;31619;49.008;12.106;2023-02-01T15:17:16;2.88;;;1.85;;
45905;SDS011;31619;49.008;12.106;2023-02-01T15:19:52;4.50;;;1.42;;
45905;SDS011;31619;49.008;12.106;2023-02-01T15:22:19;8.48;;;2.50;;
45905;SDS011;31619;49.008;12.106;2023-02-01T15:24:51;2.33;;;1.70;;
45905;SDS011;31619;49.008;12.106;2023-02-01T15:27:21;2.83;;;2.00;;
45905;SDS011;31619;49.008;12.106;2023-02-01T15:29:47;5.55;;;2.67;;
45905;SDS011;31619;49.008;12.106;2023-02-01T15:32:29;3.78;;;2.40;;
45905;SDS011;31619;49.008;12.106;2023-02-01T15:34:59;5.90;;;2.08;;
45905;SDS011;31619;49.008;12.106;2023-02-01T15:37:26;6.82;;;2.70;;
45905;SDS011;31619;49.008;12.106;2023-02-01T15:42:41;5.10;;;2.58;;
45905;SDS011;31619;49.008;12.106;2023-02-01T15:45:19;4.05;;;1.98;;
45905;SDS011;31619;49.008;12.106;2023-02-01T15:47:47;4.57;;;1.90;;
45905;SDS011;31619;49.008;12.106;2023-02-01T15:50:18;5.25;;;2.50;;
45905;SDS011;31619;49.008;12.106;2023-02-01T15:52:46;5.07;;;2.35;;
45905;SDS011;31619;49.008;12.106;2023-02-01T15:57:47;4.25;;;2.10;;
45905;SDS011;31619;49.008;12.106;2023-02-01T16:02:54;3.40;;;1.63;;
45905;SDS011;31619;49.008;12.106;2023-02-01T16:05:34;6.47;;;2.75;;
45905;SDS011;31619;49.008;12.106;2023-02-01T16:10:38;5.93;;;1.88;;
45905;SDS011;31619;49.008;12.106;2023-02-01T16:13:05;5.32;;;1.48;;
45905;SDS011;31619;49.008;12.106;2023-02-01T16:15:32;5.35;;;2.65;;
45905;SDS011;31619;49.008;12.106;2023-02-01T16:17:57;5.10;;;2.00;;
45905;SDS011;31619;49.008;12.106;2023-02-01T16:20:23;4.30;;;1.88;;
45905;SDS011;31619;49.008;12.106;2023-02-01T16:22:49;4.80;;;2.88;;
45905;SDS011;31619;49.008;12.106;2023-02-01T16:25:14;4.07;;;2.33;;
45905;SDS011;31619;49.008;12.106;2023-02-01T16:27:40;5.38;;;2.70;;
45905;SDS011;31619;49.008;12.106;2023-02-01T16:30:06;7.25;;;2.35;;
45905;SDS011;31619;49.008;12.106;2023-02-01T16:32:34;3.17;;;2.58;;
45905;SDS011;31619;49.008;12.106;2023-02-01T16:35:03;2.28;;;1.73;;
45905;SDS011;31619;49.008;12.106;2023-02-01T16:37:48;5.50;;;2.35;;
45905;SDS011;31619;49.008;12.106;2023-02-01T16:40:14;3.50;;;2.47;;
45905;SDS011;31619;49.008;12.106;2023-02-01T16:42:41;7.47;;;2.05;;
45905;SDS011;31619;49.008;12.106;2023-02-01T16:45:07;6.20;;;2.58;;
45905;SDS011;31619;49.008;12.106;2023-02-01T16:47:34;6.38;;;1.90;;
45905;SDS011;31619;49.008;12.106;2023-02-01T16:50:03;3.72;;;2.08;;
45905;SDS011;31619;49.008;12.106;2023-02-01T16:52:29;2.92;;;2.08;;
45905;SDS011;31619;49.008;12.106;2023-02-01T16:54:55;3.53;;;1.90;;
45905;SDS011;31619;49.008;12.106;2023-02-01T16:57:20;3.35;;;1.50;;
45905;SDS011;31619;49.008;12.106;2023-02-01T16:59:48;2.75;;;1.95;;
45905;SDS011;31619;49.008;12.106;2023-02-01T17:02:15;1.92;;;1.77;;
45905;SDS011;31619;49.008;12.106;2023-02-01T17:04:44;3.65;;;2.20;;
45905;SDS011;31619;49.008;12.106;2023-02-01T17:07:16;1.63;;;1.50;;
45905;SDS011;31619;49.008;12.106;2023-02-01T17:09:43;5.25;;;2.33;;
45905;SDS011;31619;49.008;12.106;2023-02-01T17:12:28;3.75;;;1.98;;
45905;SDS011;31619;49.008;12.106;2023-02-01T17:14:56;5.95;;;2.80;;
45905;SDS011;31619;49.008;12.106;2023-02-01T17:17:22;8.13;;;2.45;;
45905;SDS011;31619;49.008;12.106;2023-02-01T17:19:51;4.45;;;3.28;;
45905;SDS011;31619;49.008;12.106;2023-02-01T17:22:21;2.63;;;1.80;;
45905;SDS011;31619;49.008;12.106;2023-02-01T17:24:48;5.38;;;2.63;;
45905;SDS011;31619;49.008;12.106;2023-02-01T17:27:14;6.22;;;2.90;;
45905;SDS011;31619;49.008;12.106;2023-02-01T17:29:41;3.97;;;2.05;;
45905;SDS011;31619;49.008;12.106;2023-02-01T17:32:17;5.65;;;2.60;;
45905;SDS011;31619;49.008;12.106;2023-02-01T17:34:45;4.50;;;2.05;;
45905;SDS011;31619;49.008;12.106;2023-02-01T17:37:15;5.43;;;1.80;;